Churchill Airport
CYYQ : now visible

Airfield :











YOU CAN JOIN US ON...

 
LOGIN :

Register | Disclaimer

   EN    FR    IT 

 









Legend :    VFR   Marginal VFR   IFR   Intensive IFR   Very Intensive IFR
Visi :
Ceiling :
>= 8 km
>= 3000ft
5 to 8 km
1000 to 3000 ft
1500m to 5 km
500 to 1000 ft
800 to 1500m
200 to 500 ft
< 800m
< 200 ft
Symbols :   Thunderstorms  Fog  Heavy snow  Heavy precipitations  Wind > 20 kt






- Airport Elevation : 94 ft
- IATA code : YYQ


CYYQ - Churchill

CURRENT METAR :
  • 231700Z 29004KT 15SM BKN070 M31/M34 A3032 RMK AC7 SLP276

EXPIRED METARs :
  • 231600Z 26003KT 15SM BKN065 M32/M35 A3031 RMK SC7 SLP272
  • 231500Z 29003KT 15SM BKN065 M33/M36 A3029 RMK SC7 SLP264

TAF TAF CYYQ
Valid from the 23 at 18:00 until the 24 at 18:00 UTC


231738Z 2318/2418 26005KT P6SM BKN070
FM232000 VRB03KT P6SM FEW040 FEW070
FM240600 06008KT P6SM SCT010 SCT040
TEMPO 2406/2416 5SM IC BR BKN010 BKN040
FM241600 04008KT 5SM IC BR BKN012 RMK NXT FCST BY 240000Z
CZWG FIR / North America



MET'MAP, your aeronautical weather chart ! - Copyright ORBIFLY December 2007 - Disclaimer

ORBIFLY MET'MAP TEAM :

Programming & Development : Alexandra Zaïnal
Concept & original design : Baudouin d'Aumeries
Assistance for programming : Marc-Olivier Méhu
Technical & hardware support : Manuel Goepfert

Contact : metmap@orbifly.com




SOURCES & CREDITS :

   NOAA       Earth
Advisory